Time;durP1;ratioP1;P1;durP2;ratioP2;P2;SDS_P1;SDS_P2;PMS_P1;PMS_P2;Temp;Humidity;BMP_temperature;BMP_pressure;BME280_temperature;BME280_humidity;BME280_pressure;Samples;Min_cycle;Max_cycle;Signal;HPM_P1;HPM_P2
2022/07/16 00:02:55;;;;;;;7.03;3.08;;;;;;;16.70;59.05;102007.63;5130996;27;20436;-66
2022/07/16 00:05:21;;;;;;;7.35;3.33;;;;;;;16.65;59.34;101999.06;5132839;27;20031;-65
2022/07/16 00:07:46;;;;;;;6.35;3.50;;;;;;;16.64;59.58;101997.34;5113227;27;20019;-66
2022/07/16 00:10:12;;;;;;;3.70;3.00;;;;;;;16.66;58.90;102003.47;5111517;27;20110;-66
2022/07/16 00:12:38;;;;;;;5.32;3.38;;;;;;;16.70;58.75;102004.09;5112119;27;20096;-66
2022/07/16 00:15:04;;;;;;;4.43;3.15;;;;;;;16.62;58.91;102003.78;5132556;27;20102;-66
2022/07/16 00:17:30;;;;;;;6.15;3.60;;;;;;;16.64;58.80;102008.06;5131404;27;20023;-65
2022/07/16 00:19:55;;;;;;;7.35;3.47;;;;;;;16.58;59.93;102008.50;5131161;27;20080;-66
2022/07/16 00:22:23;;;;;;;4.68;3.95;;;;;;;16.53;59.31;102002.59;5112026;28;20520;-65
2022/07/16 00:24:48;;;;;;;4.95;3.75;;;;;;;16.53;59.61;102005.28;5131974;27;20031;-66
2022/07/16 00:27:14;;;;;;;5.88;3.95;;;;;;;16.59;59.28;102018.31;5130942;27;20015;-66
2022/07/16 00:29:40;;;;;;;5.60;3.70;;;;;;;16.53;59.35;102013.34;5113084;27;20026;-66
2022/07/16 00:32:05;;;;;;;5.38;3.67;;;;;;;16.65;59.34;102012.50;5131360;27;20031;-66
2022/07/16 00:34:31;;;;;;;7.25;3.65;;;;;;;16.65;59.36;102017.00;5130681;27;20031;-66
2022/07/16 00:36:56;;;;;;;7.15;3.85;;;;;;;16.70;59.36;102020.22;5129712;27;20066;-66
2022/07/16 00:39:24;;;;;;;8.40;3.70;;;;;;;16.79;58.89;102015.13;5112754;27;20554;-66
2022/07/16 00:41:52;;;;;;;8.13;3.67;;;;;;;16.78;59.03;102015.22;5130099;27;20034;-66
2022/07/16 00:44:19;;;;;;;7.30;4.10;;;;;;;16.72;59.19;102012.91;5130375;27;20023;-66
2022/07/16 00:46:47;;;;;;;9.90;4.50;;;;;;;16.73;59.11;102012.78;5130979;27;20019;-66
2022/07/16 00:49:14;;;;;;;7.88;4.20;;;;;;;16.67;58.99;102004.31;5130745;27;20029;-66
2022/07/16 00:51:48;;;;;;;4.88;3.70;;;;;;;16.83;58.62;102007.69;5130487;27;20047;-66
2022/07/16 00:54:15;;;;;;;6.72;3.90;;;;;;;16.78;59.94;102007.16;5131813;27;20027;-66
2022/07/16 00:56:41;;;;;;;7.88;3.80;;;;;;;16.77;59.57;102013.50;5112465;27;20019;-65
2022/07/16 00:59:07;;;;;;;6.28;3.78;;;;;;;16.83;59.29;102012.22;5112201;27;20031;-66
2022/07/16 01:01:33;;;;;;;7.32;4.10;;;;;;;16.80;60.11;102015.97;5130580;27;20039;-66
2022/07/16 01:04:02;;;;;;;6.03;3.75;;;;;;;16.76;59.23;102009.94;5131302;27;20034;-66
2022/07/16 01:06:28;;;;;;;8.80;3.85;;;;;;;16.89;59.04;102007.25;5130886;27;20027;-66
2022/07/16 01:08:54;;;;;;;6.43;3.97;;;;;;;16.87;59.65;102011.88;5110464;27;20054;-66
2022/07/16 01:11:20;;;;;;;8.10;3.70;;;;;;;16.85;59.34;102008.41;5129796;27;20031;-66
2022/07/16 01:13:48;;;;;;;6.95;4.13;;;;;;;16.72;60.34;102003.03;5130774;27;20030;-66
2022/07/16 01:16:15;;;;;;;6.47;3.50;;;;;;;16.82;59.99;102007.78;5130738;27;20157;-66
2022/07/16 01:18:42;;;;;;;5.25;4.00;;;;;;;16.73;59.54;101999.38;5130788;27;20101;-65
2022/07/16 01:21:07;;;;;;;4.55;3.30;;;;;;;16.76;60.23;101993.81;5111361;27;20019;-66
2022/07/16 01:23:33;;;;;;;6.72;4.13;;;;;;;16.86;59.64;102004.78;5113439;28;20086;-66
2022/07/16 01:25:59;;;;;;;7.38;3.88;;;;;;;16.78;60.60;101993.72;5130767;27;20023;-66
2022/07/16 01:28:25;;;;;;;10.95;4.03;;;;;;;16.75;59.49;101992.06;5131756;27;20057;-66
2022/07/16 01:30:50;;;;;;;5.63;3.50;;;;;;;16.85;59.49;101986.91;5112228;27;20620;-66
2022/07/16 01:33:31;;;;;;;7.10;4.18;;;;;;;16.83;59.10;101993.41;5130244;27;20035;-66
2022/07/16 01:36:01;;;;;;;7.43;3.63;;;;;;;16.85;59.28;101997.66;5130171;27;20054;-66
2022/07/16 01:38:27;;;;;;;6.72;3.83;;;;;;;16.82;59.73;101997.03;5129961;28;20034;-66
2022/07/16 01:40:53;;;;;;;6.35;3.63;;;;;;;16.79;59.27;102006.16;5129363;28;20119;-66
2022/07/16 01:43:24;;;;;;;7.03;3.75;;;;;;;16.82;59.40;102010.47;5111946;28;20505;-66
2022/07/16 01:45:49;;;;;;;5.75;3.30;;;;;;;16.86;59.01;102009.31;5129865;28;20121;-66
2022/07/16 01:48:16;;;;;;;5.45;3.65;;;;;;;16.74;59.49;102011.00;5111419;28;20110;-66
2022/07/16 01:50:43;;;;;;;6.72;3.78;;;;;;;16.72;58.86;102015.59;5109596;28;20142;-66
2022/07/16 01:53:09;;;;;;;6.10;3.50;;;;;;;16.74;59.19;102013.69;5111533;28;20079;-66
2022/07/16 01:55:35;;;;;;;8.32;3.50;;;;;;;16.76;59.12;102004.56;5111333;28;20468;-66
2022/07/16 01:58:02;;;;;;;5.97;3.13;;;;;;;16.77;59.19;102019.72;5131320;28;20103;-66
2022/07/16 02:00:28;;;;;;;6.47;3.42;;;;;;;16.66;59.52;102018.72;5129885;28;20110;-66
2022/07/16 02:02:54;;;;;;;6.93;3.55;;;;;;;16.71;58.87;102006.69;5131270;28;20106;-66
2022/07/16 02:05:20;;;;;;;6.00;3.58;;;;;;;16.75;59.44;101999.28;5130541;27;20031;-65
2022/07/16 02:07:46;;;;;;;5.25;3.30;;;;;;;16.71;59.69;101984.34;5130061;28;20023;-66
2022/07/16 02:10:11;;;;;;;5.05;3.13;;;;;;;16.76;59.30;101993.81;5109507;28;20027;-66
2022/07/16 02:12:39;;;;;;;8.43;3.53;;;;;;;16.73;59.24;101995.81;5130825;28;20044;-66
2022/07/16 02:15:06;;;;;;;6.78;3.63;;;;;;;16.69;59.11;102000.56;5129814;28;20029;-66
2022/07/16 02:17:32;;;;;;;5.45;3.50;;;;;;;16.69;59.28;101992.50;5129857;28;20454;-66
2022/07/16 02:19:57;;;;;;;5.78;3.40;;;;;;;16.64;59.15;101991.97;5130871;28;20079;-66
2022/07/16 02:22:25;;;;;;;7.32;3.70;;;;;;;16.61;59.44;101991.31;5128740;28;20023;-66
2022/07/16 02:24:51;;;;;;;5.32;3.55;;;;;;;16.58;59.41;102001.31;5129642;28;20172;-66
2022/07/16 02:27:17;;;;;;;9.48;3.92;;;;;;;16.66;59.29;101987.34;5111182;28;20106;-66
2022/07/16 02:29:42;;;;;;;6.82;4.15;;;;;;;16.70;59.46;101994.22;5111325;28;20034;-66
2022/07/16 02:32:08;;;;;;;6.35;4.28;;;;;;;16.66;59.56;101986.50;5129015;28;20031;-65
2022/07/16 02:34:33;;;;;;;6.80;4.13;;;;;;;16.67;59.58;101986.38;5130153;28;20034;-66
2022/07/16 02:36:59;;;;;;;5.28;3.75;;;;;;;16.71;59.70;101978.97;5109939;28;20042;-66
2022/07/16 02:39:27;;;;;;;6.22;3.85;;;;;;;16.77;59.24;101986.63;5111769;28;20034;-66
2022/07/16 02:41:52;;;;;;;4.82;4.05;;;;;;;16.73;59.69;101988.63;5093447;28;20109;-66
2022/07/16 02:44:18;;;;;;;6.85;4.00;;;;;;;16.69;59.94;101988.97;5111153;28;20055;-65
2022/07/16 02:46:44;;;;;;;5.43;3.95;;;;;;;16.67;60.14;101989.06;5131187;27;20037;-66
2022/07/16 02:49:09;;;;;;;5.72;3.53;;;;;;;16.70;60.04;101980.78;5115385;27;20042;-66
2022/07/16 02:51:35;;;;;;;5.63;3.90;;;;;;;16.70;59.45;101977.22;5132690;27;20490;-66
2022/07/16 02:54:04;;;;;;;4.50;3.67;;;;;;;16.69;59.86;101978.22;5134614;27;20033;-65
2022/07/16 02:56:32;;;;;;;4.40;3.90;;;;;;;16.63;60.35;101981.34;5132948;27;20050;-66
2022/07/16 02:58:58;;;;;;;6.45;4.13;;;;;;;16.64;60.69;101978.53;5132771;27;20035;-65
2022/07/16 03:01:23;;;;;;;7.40;4.18;;;;;;;16.65;60.59;101991.00;5114487;27;20061;-65
2022/07/16 03:03:49;;;;;;;9.43;4.03;;;;;;;16.61;59.98;101980.56;5134341;27;20084;-66
2022/07/16 03:06:15;;;;;;;6.30;3.80;;;;;;;16.55;60.26;101988.09;5113336;27;20023;-66
2022/07/16 03:08:40;;;;;;;5.85;4.03;;;;;;;16.63;60.06;101994.78;5130460;27;21597;-66
2022/07/16 03:11:06;;;;;;;9.63;3.90;;;;;;;16.61;60.28;101991.31;5132565;27;20023;-66
2022/07/16 03:13:32;;;;;;;6.90;4.05;;;;;;;16.58;60.75;102004.00;5112851;27;20031;-65
2022/07/16 03:15:57;;;;;;;6.80;4.45;;;;;;;16.51;61.21;101999.19;5114240;27;20114;-66
2022/07/16 03:18:23;;;;;;;5.78;4.13;;;;;;;16.49;60.59;101995.72;5134109;27;20485;-66
2022/07/16 03:20:48;;;;;;;6.95;4.22;;;;;;;16.44;60.77;101997.88;5114467;27;20051;-66
2022/07/16 03:23:16;;;;;;;8.82;4.35;;;;;;;16.46;60.63;101999.47;5132345;27;20023;-66
2022/07/16 03:25:43;;;;;;;6.20;4.35;;;;;;;16.39;61.04;102003.56;5115072;27;20084;-66
2022/07/16 03:28:09;;;;;;;5.75;4.30;;;;;;;16.39;61.22;102006.25;5114043;27;20031;-66
2022/07/16 03:30:37;;;;;;;6.40;4.40;;;;;;;16.37;61.10;102008.19;5131624;27;20023;-66
2022/07/16 03:33:02;;;;;;;5.65;4.60;;;;;;;16.34;61.48;102009.25;5132520;27;20037;-66
2022/07/16 03:35:29;;;;;;;9.77;4.32;;;;;;;16.41;61.46;102009.66;5131951;27;20114;-65
2022/07/16 03:40:38;;;;;;;5.70;4.22;;;;;;;16.40;60.91;102013.34;5115347;27;20080;-65
2022/07/16 03:43:04;;;;;;;6.88;4.60;;;;;;;16.38;61.29;102014.41;5112599;27;20030;-65
2022/07/16 03:45:31;;;;;;;9.48;5.25;;;;;;;16.39;61.63;102013.47;5132223;27;21798;-66
2022/07/16 03:47:57;;;;;;;7.20;4.90;;;;;;;16.39;61.73;102014.31;5115335;27;20072;-66
2022/07/16 03:50:22;;;;;;;8.35;5.20;;;;;;;16.39;61.92;102018.81;5095896;27;20043;-66
2022/07/16 03:52:48;;;;;;;8.52;5.03;;;;;;;16.38;61.46;102022.47;5131406;27;20135;-66
2022/07/16 03:55:14;;;;;;;7.15;5.55;;;;;;;16.33;62.37;102020.09;5095046;27;20031;-65
2022/07/16 03:57:39;;;;;;;8.52;5.40;;;;;;;16.45;62.26;102026.47;5094156;27;20031;-66
2022/07/16 04:00:06;;;;;;;7.00;6.30;;;;;;;16.44;62.36;102028.28;5132013;27;20023;-66
2022/07/16 04:02:35;;;;;;;8.90;6.20;;;;;;;16.46;62.57;102026.34;5131401;27;20030;-65
2022/07/16 04:05:00;;;;;;;7.87;5.33;;;;;;;16.45;62.79;102027.31;5131973;27;20164;-66
2022/07/16 04:07:28;;;;;;;8.15;6.10;;;;;;;16.45;63.03;102029.16;5111434;27;20113;-66
2022/07/16 04:09:53;;;;;;;11.70;6.22;;;;;;;16.52;62.36;102033.97;5132731;27;20027;-66
2022/07/16 04:12:22;;;;;;;9.10;6.35;;;;;;;16.54;62.90;102031.19;5096077;27;20050;-65
2022/07/16 04:14:47;;;;;;;7.20;5.70;;;;;;;16.56;62.92;102040.00;5131831;27;20034;-65
2022/07/16 04:17:13;;;;;;;12.40;6.00;;;;;;;16.50;64.00;102035.91;5085870;27;20489;-66
2022/07/16 04:19:39;;;;;;;8.27;6.18;;;;;;;16.56;63.86;102040.00;5113757;27;20118;-66
2022/07/16 04:22:07;;;;;;;10.73;7.03;;;;;;;16.57;63.76;102033.66;5131356;27;20023;-66
2022/07/16 04:24:32;;;;;;;10.23;7.05;;;;;;;16.61;64.10;102045.91;5114361;27;20394;-65
2022/07/16 04:27:00;;;;;;;8.23;6.03;;;;;;;16.65;64.45;102049.22;5111999;27;20043;-66
2022/07/16 04:29:25;;;;;;;10.75;6.47;;;;;;;16.67;64.40;102045.47;5129664;27;20046;-66
2022/07/16 04:31:51;;;;;;;6.97;6.28;;;;;;;16.71;65.07;102040.75;5131017;27;20027;-66
2022/07/16 04:34:16;;;;;;;8.90;6.13;;;;;;;16.69;65.12;102032.81;5131408;27;20019;-66
2022/07/16 04:36:42;;;;;;;9.35;5.70;;;;;;;16.82;65.08;102048.09;5130925;27;20050;-65
2022/07/16 04:39:07;;;;;;;9.15;6.70;;;;;;;16.80;65.72;102057.13;5081813;27;20083;-66
2022/07/16 04:41:33;;;;;;;8.75;6.70;;;;;;;16.78;66.28;102047.44;5081199;27;20084;-66
2022/07/16 04:43:58;;;;;;;10.63;7.00;;;;;;;16.77;66.58;102054.66;5109332;27;20488;-65
2022/07/16 04:46:23;;;;;;;9.25;6.47;;;;;;;16.79;66.93;102054.53;5113578;27;20883;-66
2022/07/16 04:48:49;;;;;;;10.95;6.60;;;;;;;16.81;66.73;102033.78;5096639;27;20039;-66
2022/07/16 04:51:17;;;;;;;12.50;6.90;;;;;;;16.93;66.84;102051.75;5129721;27;20027;-66
2022/07/16 04:53:43;;;;;;;11.93;7.28;;;;;;;16.82;67.61;102058.84;5113715;27;20680;-66
2022/07/16 04:56:09;;;;;;;10.02;6.75;;;;;;;16.87;67.83;102059.38;5129556;27;20091;-66
2022/07/16 04:58:34;;;;;;;8.02;7.03;;;;;;;16.89;68.20;102054.78;5113855;27;20027;-66
2022/07/16 05:01:01;;;;;;;10.15;6.93;;;;;;;16.78;68.77;102044.75;5132429;27;20046;-66
2022/07/16 05:03:27;;;;;;;11.98;6.93;;;;;;;16.91;69.01;102061.75;5112729;27;20423;-65
2022/07/16 05:05:52;;;;;;;11.27;6.85;;;;;;;16.96;69.25;102064.97;5130011;27;20131;-66
2022/07/16 05:08:18;;;;;;;11.40;6.18;;;;;;;16.91;70.24;102048.31;5112736;27;20049;-65
2022/07/16 05:10:44;;;;;;;11.30;5.50;;;;;;;17.01;70.93;102070.03;5131598;27;20107;-65
2022/07/16 05:13:10;;;;;;;9.05;5.70;;;;;;;17.05;71.27;102060.75;5131915;27;20023;-65
2022/07/16 05:15:36;;;;;;;10.25;5.57;;;;;;;17.08;71.63;102075.81;5113744;27;20072;-65
2022/07/16 05:18:03;;;;;;;10.55;5.35;;;;;;;17.10;71.49;102068.50;5132069;27;20027;-65
2022/07/16 05:20:28;;;;;;;9.90;5.30;;;;;;;17.19;72.29;102075.91;5113674;27;20466;-66
2022/07/16 05:22:54;;;;;;;8.23;5.07;;;;;;;17.23;72.75;102082.78;5131435;27;20046;-66
2022/07/16 05:25:20;;;;;;;6.35;5.15;;;;;;;17.28;72.69;102082.47;5113034;28;20031;-66
2022/07/16 05:27:45;;;;;;;7.78;5.05;;;;;;;17.32;72.75;102082.13;5113115;27;20382;-66
2022/07/16 05:30:14;;;;;;;8.77;5.15;;;;;;;17.37;73.33;102090.72;5113561;27;20061;-65
2022/07/16 05:32:41;;;;;;;9.15;5.25;;;;;;;17.29;73.30;102073.41;5131781;27;20026;-66
2022/07/16 05:35:07;;;;;;;8.77;5.20;;;;;;;17.39;73.75;102085.25;5131872;27;20055;-65
2022/07/16 05:37:33;;;;;;;11.43;5.68;;;;;;;17.44;73.94;102091.13;5112998;28;20080;-65
2022/07/16 05:39:59;;;;;;;11.55;5.57;;;;;;;17.53;73.76;102097.69;5113003;28;20027;-65
2022/07/16 05:42:24;;;;;;;11.48;6.32;;;;;;;17.54;73.80;102086.81;5131694;28;20031;-66
2022/07/16 05:44:50;;;;;;;10.80;5.45;;;;;;;17.63;73.83;102093.38;5113205;28;20027;-66
2022/07/16 05:47:15;;;;;;;12.63;5.57;;;;;;;17.76;74.03;102087.94;5131788;28;20038;-66
2022/07/16 05:49:40;;;;;;;8.73;5.20;;;;;;;17.83;73.50;102084.72;5079011;28;20039;-66
2022/07/16 05:52:06;;;;;;;9.13;4.80;;;;;;;17.88;73.91;102092.44;5131067;28;20039;-65
2022/07/16 05:54:34;;;;;;;12.13;4.90;;;;;;;17.98;73.69;102098.03;5112899;28;20153;-66
2022/07/16 05:57:00;;;;;;;8.70;4.38;;;;;;;18.11;73.95;102099.66;5130999;28;20522;-65
2022/07/16 05:59:26;;;;;;;8.70;4.32;;;;;;;18.28;73.11;102098.41;5131478;28;20126;-65
2022/07/16 06:01:51;;;;;;;6.50;3.83;;;;;;;18.35;72.59;102102.34;5112721;28;20031;-66
2022/07/16 06:04:17;;;;;;;10.40;3.78;;;;;;;18.37;72.05;102102.22;5130635;28;20858;-66
2022/07/16 06:06:43;;;;;;;9.48;3.65;;;;;;;18.46;72.19;102106.91;5111840;28;20031;-66
2022/07/16 06:09:08;;;;;;;8.07;3.63;;;;;;;18.48;71.52;102115.75;5130915;28;20027;-66
2022/07/16 06:11:34;;;;;;;6.18;3.53;;;;;;;18.57;71.82;102124.97;5131422;28;20041;-66
2022/07/16 06:13:59;;;;;;;6.90;3.00;;;;;;;18.54;69.89;102117.13;5112614;28;20067;-66
2022/07/16 06:16:25;;;;;;;6.47;3.10;;;;;;;18.60;70.08;102117.50;5112632;28;20479;-66
2022/07/16 06:18:50;;;;;;;9.45;3.42;;;;;;;18.65;69.66;102132.44;5095263;28;20099;-66
2022/07/16 06:21:16;;;;;;;6.75;2.55;;;;;;;18.71;68.73;102127.47;5113842;27;20106;-65
2022/07/16 06:23:42;;;;;;;3.92;2.88;;;;;;;18.81;68.16;102122.25;5116622;27;20031;-66
2022/07/16 06:26:08;;;;;;;5.32;2.22;;;;;;;18.97;65.83;102135.38;5117154;27;20122;-66
2022/07/16 06:28:34;;;;;;;5.72;2.22;;;;;;;19.03;64.77;102141.16;5134571;27;20029;-66
2022/07/16 06:30:59;;;;;;;7.72;2.50;;;;;;;18.98;64.96;102140.66;5134656;27;20051;-66
2022/07/16 06:33:25;;;;;;;3.85;2.05;;;;;;;18.82;64.82;102145.50;5117019;27;20047;-66
2022/07/16 06:35:51;;;;;;;3.85;1.90;;;;;;;18.78;65.57;102142.19;5116107;27;20042;-65
2022/07/16 06:38:16;;;;;;;5.70;2.30;;;;;;;18.84;64.99;102136.31;5133865;27;20031;-66
2022/07/16 06:40:44;;;;;;;3.58;2.40;;;;;;;18.78;65.18;102141.34;5116395;27;20083;-66
2022/07/16 06:43:10;;;;;;;6.25;2.00;;;;;;;18.84;64.84;102146.25;5134714;27;20517;-65
2022/07/16 06:45:36;;;;;;;3.72;2.17;;;;;;;18.85;65.91;102145.28;5135132;27;20054;-66
2022/07/16 06:48:01;;;;;;;3.78;2.30;;;;;;;19.03;64.18;102153.75;5134587;27;20031;-66
2022/07/16 06:50:27;;;;;;;4.40;2.20;;;;;;;19.00;63.21;102152.19;5116044;27;20031;-66
2022/07/16 06:52:56;;;;;;;3.47;2.00;;;;;;;19.00;63.42;102156.69;5133629;27;20486;-66
2022/07/16 06:55:24;;;;;;;5.83;2.10;;;;;;;19.09;63.75;102147.03;5116661;27;20433;-66
2022/07/16 06:57:52;;;;;;;3.22;1.83;;;;;;;19.12;63.93;102161.16;5134658;27;20312;-65
2022/07/16 07:00:19;;;;;;;5.57;2.20;;;;;;;19.02;62.47;102162.84;5134814;27;20100;-66
2022/07/16 07:02:45;;;;;;;2.78;1.80;;;;;;;19.07;62.38;102168.75;5115742;27;20390;-66
2022/07/16 07:05:11;;;;;;;5.38;2.63;;;;;;;19.26;62.56;102181.63;5134302;27;20054;-66
2022/07/16 07:07:36;;;;;;;5.10;2.42;;;;;;;19.40;61.47;102184.09;5134000;27;20094;-66
2022/07/16 07:10:02;;;;;;;3.03;1.85;;;;;;;19.58;60.66;102189.03;5115822;27;20049;-65
2022/07/16 07:12:27;;;;;;;3.25;1.70;;;;;;;19.52;59.87;102182.28;5115959;27;20027;-66
2022/07/16 07:14:53;;;;;;;4.65;2.00;;;;;;;19.62;59.41;102180.56;5116020;27;20034;-66
2022/07/16 07:17:18;;;;;;;4.43;1.90;;;;;;;19.74;59.02;102194.97;5133997;27;20031;-65
2022/07/16 07:19:44;;;;;;;2.45;1.85;;;;;;;19.75;58.12;102193.97;5115333;27;20109;-66
2022/07/16 07:22:09;;;;;;;3.28;1.92;;;;;;;19.83;58.10;102196.06;5115391;27;20037;-66
2022/07/16 07:24:35;;;;;;;3.75;1.88;;;;;;;19.86;54.64;102177.75;5133470;27;20035;-66
2022/07/16 07:27:00;;;;;;;4.60;2.00;;;;;;;20.19;54.61;102198.44;5134056;27;20051;-66
2022/07/16 07:29:26;;;;;;;5.68;1.50;;;;;;;20.14;52.65;102207.91;5134300;27;20031;-65
2022/07/16 07:31:51;;;;;;;5.53;1.95;;;;;;;20.03;53.34;102206.09;5133900;27;20480;-65
2022/07/16 07:34:17;;;;;;;2.42;1.60;;;;;;;20.22;52.62;102207.28;5097706;27;21728;-65
2022/07/16 07:36:42;;;;;;;4.00;1.67;;;;;;;20.33;52.36;102208.13;5114818;27;20050;-66
2022/07/16 07:39:08;;;;;;;3.55;1.65;;;;;;;20.33;51.31;102209.97;5115428;27;20110;-66
2022/07/16 07:41:34;;;;;;;5.15;1.70;;;;;;;20.19;51.07;102211.94;5133696;27;20099;-66
2022/07/16 07:44:00;;;;;;;2.85;1.50;;;;;;;20.30;51.26;102211.06;5133949;27;20031;-66
2022/07/16 07:46:26;;;;;;;2.55;1.52;;;;;;;20.24;52.08;102219.69;5133748;27;20027;-68
2022/07/16 07:48:52;;;;;;;2.10;1.30;;;;;;;20.23;51.58;102217.09;5133529;27;20474;-65
2022/07/16 07:51:18;;;;;;;4.80;1.90;;;;;;;20.26;51.51;102219.53;5114999;27;20023;-66
2022/07/16 07:53:47;;;;;;;2.38;1.50;;;;;;;20.10;52.02;102218.13;5133621;27;20112;-66
2022/07/16 07:56:13;;;;;;;4.75;1.60;;;;;;;20.03;51.91;102221.41;5115368;27;20042;-66
2022/07/16 07:58:39;;;;;;;4.95;1.70;;;;;;;19.96;51.91;102221.06;5115350;27;20023;-66
2022/07/16 08:01:08;;;;;;;4.38;1.73;;;;;;;19.92;53.05;102215.06;5115015;27;20508;-66
2022/07/16 08:03:33;;;;;;;2.38;1.50;;;;;;;19.98;52.34;102238.03;5132964;27;20113;-66
2022/07/16 08:05:59;;;;;;;3.58;1.40;;;;;;;20.04;52.49;102232.13;5115118;27;20113;-66
2022/07/16 08:08:24;;;;;;;5.10;1.65;;;;;;;20.03;52.78;102233.13;5133030;27;20035;-66
2022/07/16 08:10:50;;;;;;;5.57;1.80;;;;;;;20.02;53.67;102235.91;5114544;27;20035;-66
2022/07/16 08:13:17;;;;;;;5.78;1.90;;;;;;;20.08;54.05;102238.13;5081068;27;20491;-66
2022/07/16 08:15:43;;;;;;;4.32;1.95;;;;;;;20.00;53.00;102233.38;5133466;27;20019;-65
2022/07/16 08:18:09;;;;;;;3.55;1.95;;;;;;;20.17;53.25;102249.03;5132774;27;20470;-66
2022/07/16 08:20:34;;;;;;;4.57;1.70;;;;;;;20.33;53.32;102251.34;5132727;27;20030;-66
2022/07/16 08:23:00;;;;;;;2.90;1.85;;;;;;;20.47;52.91;102249.34;5113816;27;20094;-66
2022/07/16 08:28:10;;;;;;;4.43;1.85;;;;;;;20.39;50.35;102263.50;5117270;27;20548;-66
2022/07/16 08:30:36;;;;;;;4.15;1.60;;;;;;;20.47;50.66;102262.84;5114215;27;20026;-66
2022/07/16 08:33:01;;;;;;;4.35;1.90;;;;;;;20.52;50.13;102264.22;5114096;27;21456;-66
2022/07/16 08:35:27;;;;;;;2.03;1.33;;;;;;;20.62;50.65;102269.75;5132890;27;20023;-66
2022/07/16 08:37:52;;;;;;;3.75;1.85;;;;;;;20.61;50.19;102262.59;5113786;27;20389;-66
2022/07/16 08:40:23;;;;;;;4.85;1.70;;;;;;;20.62;49.21;102284.13;5113901;27;20051;-66
2022/07/16 08:42:51;;;;;;;3.45;1.73;;;;;;;20.73;49.04;102277.81;5132499;27;20023;-66
2022/07/16 08:45:22;;;;;;;3.13;1.50;;;;;;;20.83;49.38;102276.06;5114278;27;20389;-66
2022/07/16 08:47:50;;;;;;;3.33;1.67;;;;;;;20.74;49.05;102287.66;5132109;27;20694;-66
2022/07/16 08:50:16;;;;;;;5.20;1.67;;;;;;;20.71;49.33;102285.22;5132589;27;20111;-66
2022/07/16 08:52:44;;;;;;;4.15;1.70;;;;;;;20.86;49.45;102283.91;5131735;27;20513;-66
2022/07/16 08:55:10;;;;;;;11.17;2.70;;;;;;;20.97;49.12;102277.63;5132746;27;20455;-66
2022/07/16 08:57:39;;;;;;;7.15;1.95;;;;;;;20.92;49.36;102287.09;5132244;27;20292;-66
2022/07/16 09:00:08;;;;;;;6.90;1.90;;;;;;;20.96;49.04;102288.56;5114241;27;20050;-66
2022/07/16 09:02:34;;;;;;;3.08;1.50;;;;;;;20.87;49.15;102295.59;5113463;27;20037;-66
2022/07/16 09:05:03;;;;;;;20.02;3.08;;;;;;;21.07;48.24;102293.91;5132448;27;20019;-67
2022/07/16 09:07:28;;;;;;;;;;;;;;;21.16;48.89;102298.53;5132338;27;20054;-66
2022/07/16 09:09:54;;;;;;;6.07;2.22;;;;;;;21.15;48.80;102298.66;5132065;27;19954;-66
2022/07/16 09:12:34;;;;;;;2.38;1.48;;;;;;;21.28;48.48;102300.19;5113069;28;20700;-66
2022/07/16 09:15:22;;;;;;;4.53;1.98;;;;;;;21.28;47.96;102308.31;5112322;27;20019;-66
2022/07/16 09:18:13;;;;;;;2.03;1.40;;;;;;;21.38;47.60;102300.28;5131917;27;20058;-65
2022/07/16 09:20:41;;;;;;;4.57;1.70;;;;;;;21.58;47.76;102300.44;5132162;27;20027;-65
2022/07/16 09:23:18;;;;;;;9.27;1.95;;;;;;;21.61;46.51;102303.72;5131191;27;20071;-65
2022/07/16 09:25:53;;;;;;;2.83;1.40;;;;;;;21.62;45.72;102310.00;5132036;27;20439;-65
2022/07/16 09:28:19;;;;;;;4.15;1.55;;;;;;;21.70;45.91;102305.63;5131981;27;20397;-65
2022/07/16 09:30:45;;;;;;;3.25;1.48;;;;;;;21.65;44.92;102307.00;5113171;27;20122;-65
2022/07/16 09:33:16;;;;;;;4.60;1.88;;;;;;;21.43;43.58;102311.59;5131551;27;20102;-66
2022/07/16 09:35:43;;;;;;;3.58;1.75;;;;;;;21.23;44.14;102305.13;5131396;27;20023;-65
2022/07/16 09:38:09;;;;;;;3.25;1.50;;;;;;;21.35;44.13;102310.50;5113013;27;20023;-65
2022/07/16 09:40:34;;;;;;;2.72;1.58;;;;;;;21.45;44.53;102315.03;5131838;28;20084;-65
2022/07/16 09:43:02;;;;;;;3.63;1.80;;;;;;;21.55;44.27;102313.22;5131802;28;20570;-65
2022/07/16 09:45:28;;;;;;;4.93;1.85;;;;;;;21.80;44.60;102313.81;5131318;28;20027;-65
2022/07/16 09:47:53;;;;;;;4.10;1.77;;;;;;;21.91;43.94;102321.00;5112760;28;20026;-65
2022/07/16 09:50:19;;;;;;;5.78;1.75;;;;;;;22.04;44.63;102329.78;5113204;28;20023;-65
2022/07/16 09:52:45;;;;;;;3.08;1.35;;;;;;;22.03;44.07;102324.47;5092310;28;20051;-65
2022/07/16 09:55:10;;;;;;;3.17;1.50;;;;;;;21.67;43.11;102324.00;5094457;28;20036;-65
2022/07/16 09:57:36;;;;;;;4.25;1.60;;;;;;;21.63;43.87;102328.81;5114086;28;20399;-65
2022/07/16 10:00:04;;;;;;;3.70;1.30;;;;;;;21.46;44.82;102332.97;5113644;28;20386;-65
2022/07/16 10:02:30;;;;;;;2.58;1.58;;;;;;;21.57;44.56;102328.50;5113753;28;20102;-65
2022/07/16 10:04:56;;;;;;;4.20;1.85;;;;;;;21.74;45.03;102325.19;5115429;28;20027;-65
2022/07/16 10:07:21;;;;;;;4.32;1.60;;;;;;;22.02;44.04;102334.47;5093028;28;20039;-64
2022/07/16 10:09:49;;;;;;;2.92;1.50;;;;;;;21.98;44.84;102324.91;5110805;28;20230;-63
2022/07/16 10:12:16;;;;;;;4.80;1.75;;;;;;;22.03;43.98;102328.06;5111729;28;20374;-63
2022/07/16 10:14:45;;;;;;;5.30;1.50;;;;;;;21.98;41.76;102336.59;5114155;28;20020;-61
2022/07/16 10:17:19;;;;;;;;;;;;;;;22.03;41.80;102344.31;5115110;28;20729;-66
2022/07/16 10:19:55;;;;;;;6.38;1.65;;;;;;;21.63;42.99;102341.53;5113128;28;20343;-68
2022/07/16 10:22:27;;;;;;;4.78;1.52;;;;;;;21.66;43.22;102325.00;5107644;28;20030;-71
2022/07/16 10:24:57;;;;;;;4.03;1.55;;;;;;;21.99;42.85;102356.41;5111643;28;20127;-67
2022/07/16 10:27:35;;;;;;;3.65;1.42;;;;;;;22.18;41.87;102348.41;5109428;28;20073;-65
2022/07/16 10:30:16;;;;;;;1.85;1.50;;;;;;;22.46;41.60;102359.50;5113041;28;20023;-65
2022/07/16 10:33:00;;;;;;;2.38;1.45;;;;;;;22.49;42.02;102356.50;5111879;28;20027;-64
2022/07/16 10:35:33;;;;;;;2.33;1.40;;;;;;;22.52;41.09;102361.66;5113113;28;20049;-64
2022/07/16 10:38:11;;;;;;;6.15;1.70;;;;;;;22.73;41.72;102364.28;5110088;28;20470;-65
2022/07/16 10:40:38;;;;;;;2.92;1.25;;;;;;;22.77;40.54;102351.31;5114397;28;20038;-65
2022/07/16 10:43:21;;;;;;;5.10;1.70;;;;;;;22.73;40.27;102366.13;5110522;28;20020;-64
2022/07/16 10:45:56;;;;;;;6.00;1.90;;;;;;;22.50;41.57;102360.97;5114190;28;20047;-65
2022/07/16 10:48:49;;;;;;;12.77;1.88;;;;;;;22.44;41.52;102365.06;5113947;28;20034;-65
2022/07/16 10:51:20;;;;;;;2.53;1.40;;;;;;;22.43;40.83;102367.91;5113705;27;20023;-65
2022/07/16 10:53:57;;;;;;;2.53;1.73;;;;;;;22.54;40.69;102372.38;5134660;27;20026;-63
2022/07/16 10:56:39;;;;;;;5.43;1.70;;;;;;;22.63;41.38;102366.97;5114954;27;20470;-63
2022/07/16 10:59:10;;;;;;;3.70;1.52;;;;;;;22.49;41.89;102367.34;5132573;27;20052;-63
2022/07/16 11:01:37;;;;;;;2.20;1.38;;;;;;;22.43;43.83;102376.03;5131727;27;20034;-63
2022/07/16 11:04:04;;;;;;;5.32;1.42;;;;;;;22.41;41.86;102372.59;5115629;27;20492;-63
2022/07/16 11:06:30;;;;;;;6.28;2.08;;;;;;;22.27;40.98;102368.44;5112356;27;20043;-66
2022/07/16 11:08:59;;;;;;;4.95;1.67;;;;;;;22.26;41.87;102374.81;5114583;27;20564;-66
2022/07/16 11:11:39;;;;;;;2.47;1.67;;;;;;;22.45;41.84;102369.50;5133654;27;20027;-69
2022/07/16 11:14:06;;;;;;;3.25;1.63;;;;;;;22.59;41.39;102375.50;5131646;27;20023;-72
2022/07/16 11:16:32;;;;;;;3.58;1.55;;;;;;;22.72;41.68;102373.41;5131573;27;20035;-70
2022/07/16 11:19:04;;;;;;;2.45;1.58;;;;;;;22.52;42.03;102372.50;5133092;27;20035;-68
2022/07/16 11:21:31;;;;;;;4.95;1.77;;;;;;;22.47;42.10;102373.91;5133347;27;20031;-65
2022/07/16 11:24:01;;;;;;;6.15;2.40;;;;;;;22.52;42.53;102387.91;5133832;27;20075;-69
2022/07/16 11:26:28;;;;;;;1.80;1.50;;;;;;;22.39;40.70;102377.31;5133753;27;20019;-68
2022/07/16 11:29:01;;;;;;;3.10;1.35;;;;;;;22.48;41.47;102381.06;5130099;27;20486;-70
2022/07/16 11:31:34;;;;;;;2.45;1.55;;;;;;;22.67;41.40;102376.53;5133770;27;20023;-75